Time;durP1;ratioP1;P1;durP2;ratioP2;P2;SDS_P1;SDS_P2;PMS_P1;PMS_P2;Temp;Humidity;BMP_temperature;BMP_pressure;BME280_temperature;BME280_humidity;BME280_pressure;Samples;Min_cycle;Max_cycle;Signal;HPM_P1;HPM_P2
2023/03/01 00:02:28;;;;;;;2.87;2.67;;;;;;;21.38;35.70;95526.44;6232209;27;109180;-63
2023/03/01 00:05:33;;;;;;;3.10;2.90;;;;;;;21.36;35.49;95520.63;6244302;27;109383;-62
2023/03/01 00:08:36;;;;;;;3.17;2.63;;;;;;;21.38;35.06;95520.31;6230791;27;109294;-62
2023/03/01 00:11:39;;;;;;;2.60;2.40;;;;;;;21.37;35.06;95521.41;6231957;27;110706;-62
2023/03/01 00:14:42;;;;;;;2.33;2.20;;;;;;;21.36;35.42;95520.63;6234802;27;108840;-62
2023/03/01 00:17:46;;;;;;;2.57;2.37;;;;;;;21.36;35.19;95523.28;6235387;27;111255;-62
2023/03/01 00:20:53;;;;;;;2.70;2.50;;;;;;;21.36;35.48;95512.63;6231539;27;109572;-63
2023/03/01 00:23:57;;;;;;;2.50;2.30;;;;;;;21.36;35.25;95501.19;6223079;27;110308;-62
2023/03/01 00:27:00;;;;;;;3.13;2.80;;;;;;;21.32;35.45;95489.50;6233470;28;109558;-62
2023/03/01 00:30:04;;;;;;;2.03;1.93;;;;;;;21.34;35.20;95493.50;6232146;27;110213;-62
2023/03/01 00:33:07;;;;;;;2.40;2.20;;;;;;;21.35;35.02;95491.63;6225160;27;109140;-62
2023/03/01 00:36:13;;;;;;;2.40;2.20;;;;;;;21.32;34.75;95484.97;6235297;27;110041;-62
2023/03/01 00:39:17;;;;;;;2.33;2.13;;;;;;;21.33;35.15;95469.81;6233123;27;110096;-62
2023/03/01 00:42:20;;;;;;;1.97;1.87;;;;;;;21.30;34.96;95476.50;6233928;27;109842;-62
2023/03/01 00:45:23;;;;;;;2.00;1.90;;;;;;;21.32;35.13;95469.00;6222613;27;109774;-62
2023/03/01 00:48:26;;;;;;;1.80;1.70;;;;;;;21.23;35.00;95470.75;6223047;27;109281;-62
2023/03/01 00:51:31;;;;;;;2.83;2.50;;;;;;;21.30;34.93;95481.81;6233682;27;109692;-62
2023/03/01 00:54:34;;;;;;;2.40;2.20;;;;;;;21.30;35.17;95481.03;6225897;28;109408;-62
2023/03/01 00:57:38;;;;;;;2.10;1.90;;;;;;;21.26;35.17;95467.50;6222315;27;109040;-62
2023/03/01 01:00:41;;;;;;;2.30;2.10;;;;;;;21.26;35.00;95469.38;6234185;27;110026;-63
2023/03/01 01:03:45;;;;;;;2.00;1.90;;;;;;;21.28;35.02;95468.00;6207294;22;109562;-60
2023/03/01 01:06:50;;;;;;;2.00;1.90;;;;;;;21.27;34.78;95468.31;6124925;28;109127;-57
2023/03/01 01:09:53;;;;;;;1.67;1.57;;;;;;;21.28;34.98;95473.34;6124664;27;110359;-59
2023/03/01 01:12:57;;;;;;;2.20;2.00;;;;;;;21.20;34.84;95458.03;6133287;27;109187;-57
2023/03/01 01:16:02;;;;;;;2.27;2.13;;;;;;;21.27;35.31;95470.97;6132287;28;109404;-57
2023/03/01 01:19:05;;;;;;;1.80;1.70;;;;;;;21.28;34.84;95473.34;6116181;28;109108;-57
2023/03/01 01:22:10;;;;;;;2.03;1.93;;;;;;;21.29;34.80;95469.59;6128108;28;109085;-57
2023/03/01 01:25:13;;;;;;;1.80;1.70;;;;;;;21.24;34.68;95467.03;6130548;28;109071;-57
2023/03/01 01:28:16;;;;;;;1.97;1.87;;;;;;;21.21;34.86;95463.06;6130664;28;109143;-58
2023/03/01 01:31:20;;;;;;;1.80;1.50;;;;;;;21.25;35.09;95473.91;6112266;28;109997;-58
2023/03/01 01:34:23;;;;;;;1.70;1.60;;;;;;;21.24;34.99;95472.34;6129908;28;110108;-58
2023/03/01 01:37:31;;;;;;;1.67;1.57;;;;;;;21.26;34.94;95480.03;6131344;28;110282;-57
2023/03/01 01:40:34;;;;;;;2.00;1.90;;;;;;;21.28;34.89;95484.00;6121640;28;110418;-58
2023/03/01 01:43:40;;;;;;;1.60;1.50;;;;;;;21.26;34.87;95480.81;6126557;27;111364;-58
2023/03/01 01:46:47;;;;;;;1.83;1.50;;;;;;;21.25;35.03;95481.13;6129468;28;111272;-58
2023/03/01 01:49:54;;;;;;;1.47;1.30;;;;;;;21.23;35.05;95476.09;6127401;28;109241;-57
2023/03/01 01:52:59;;;;;;;1.50;1.40;;;;;;;20.92;35.10;95433.94;6116342;28;110455;-58
2023/03/01 01:56:03;;;;;;;1.50;1.40;;;;;;;21.23;34.83;95472.63;6131963;28;110063;-57
2023/03/01 01:59:06;;;;;;;1.60;1.50;;;;;;;21.21;34.96;95472.94;6130027;28;109650;-57
2023/03/01 02:02:10;;;;;;;1.67;1.53;;;;;;;21.22;34.81;95471.84;6118790;28;109328;-57
2023/03/01 02:05:18;;;;;;;1.30;1.20;;;;;;;21.20;34.72;95463.34;6187432;27;111799;-58
2023/03/01 02:08:27;;;;;;;1.40;1.30;;;;;;;21.20;34.58;95464.16;6165492;28;109626;-58
2023/03/01 02:11:32;;;;;;;1.50;1.40;;;;;;;21.19;34.91;95457.25;6134944;28;110470;-59
2023/03/01 02:14:35;;;;;;;1.63;1.10;;;;;;;21.19;34.83;95451.13;6128282;28;109911;-57
2023/03/01 02:17:38;;;;;;;1.20;1.10;;;;;;;21.18;34.79;95453.00;6209791;27;110522;-57
2023/03/01 02:20:53;;;;;;;1.67;1.57;;;;;;;21.20;34.74;95460.69;6183677;28;110013;-59
2023/03/01 02:24:00;;;;;;;1.23;1.13;;;;;;;21.18;34.77;95461.00;6173923;28;109227;-58
2023/03/01 02:27:04;;;;;;;1.17;1.07;;;;;;;21.19;34.63;95464.44;6175938;28;110333;-58
2023/03/01 02:30:12;;;;;;;1.03;0.97;;;;;;;21.18;34.82;95458.34;6127159;28;109273;-58
2023/03/01 02:33:15;;;;;;;1.20;1.10;;;;;;;21.19;34.68;95453.78;6131031;28;108986;-57
2023/03/01 02:36:21;;;;;;;1.30;1.20;;;;;;;21.19;34.47;95464.44;6132349;28;109530;-57
2023/03/01 02:39:27;;;;;;;1.20;1.10;;;;;;;21.18;34.68;95468.97;6118140;28;109611;-59
2023/03/01 02:42:36;;;;;;;0.83;0.83;;;;;;;21.18;34.86;95468.19;6123273;28;109200;-57
2023/03/01 02:45:48;;;;;;;1.07;0.97;;;;;;;21.17;34.49;95461.25;6126130;28;110088;-57
2023/03/01 02:48:54;;;;;;;1.20;1.10;;;;;;;21.18;34.46;95462.88;6126437;28;109215;-57
2023/03/01 02:52:23;;;;;;;1.63;1.20;;;;;;;21.17;34.66;95464.72;6121958;28;109157;-58
2023/03/01 02:55:27;;;;;;;1.20;1.10;;;;;;;21.18;34.80;95462.88;6152427;28;110258;-58
2023/03/01 02:58:30;;;;;;;1.40;1.10;;;;;;;21.18;34.85;95458.34;6129090;28;109099;-58
2023/03/01 03:01:37;;;;;;;1.20;1.10;;;;;;;21.18;34.73;95465.53;6123437;28;110451;-58
2023/03/01 03:04:40;;;;;;;1.40;1.30;;;;;;;21.18;34.50;95460.19;6130044;28;109665;-58
2023/03/01 03:07:45;;;;;;;2.50;1.00;;;;;;;21.15;34.93;95452.78;6134077;28;110407;-58
2023/03/01 03:10:48;;;;;;;1.07;0.90;;;;;;;21.15;34.74;95455.44;6137077;27;109067;-58
2023/03/01 03:13:51;;;;;;;1.47;1.37;;;;;;;21.17;34.78;95461.25;6160663;28;110573;-58
2023/03/01 03:16:56;;;;;;;1.10;1.00;;;;;;;21.15;34.58;95463.41;6151967;28;109274;-58
2023/03/01 03:19:59;;;;;;;1.10;1.00;;;;;;;21.16;34.66;95459.69;6135110;28;109614;-57
2023/03/01 03:23:02;;;;;;;0.90;0.90;;;;;;;21.13;34.47;95466.38;6115891;28;109668;-57
2023/03/01 03:26:06;;;;;;;1.30;1.20;;;;;;;21.13;34.34;95463.72;6130622;28;109177;-59
2023/03/01 03:29:10;;;;;;;0.93;0.93;;;;;;;21.11;34.53;95465.09;6139490;28;109327;-57
2023/03/01 03:32:14;;;;;;;2.40;0.80;;;;;;;21.11;34.32;95465.09;6126392;28;110293;-57
2023/03/01 03:35:17;;;;;;;0.77;0.70;;;;;;;21.10;34.55;95477.59;6138525;28;110198;-59
2023/03/01 03:38:21;;;;;;;1.20;1.10;;;;;;;21.04;34.51;95469.97;6140852;28;109135;-57
2023/03/01 03:41:25;;;;;;;0.97;0.93;;;;;;;21.12;34.75;95470.13;6126153;28;110129;-59
2023/03/01 03:44:28;;;;;;;0.83;0.83;;;;;;;21.09;34.85;95481.34;6170163;28;109179;-58
2023/03/01 03:47:32;;;;;;;0.70;0.63;;;;;;;21.10;34.81;95476.81;6122102;28;109997;-59
2023/03/01 03:50:36;;;;;;;1.10;1.00;;;;;;;21.10;34.40;95479.47;6133049;28;109785;-58
2023/03/01 03:53:40;;;;;;;1.20;1.10;;;;;;;20.99;34.39;95462.03;6132458;28;109036;-58
2023/03/01 03:56:43;;;;;;;0.80;0.80;;;;;;;21.10;34.59;95482.13;6155452;28;109187;-58
2023/03/01 03:59:47;;;;;;;1.20;1.10;;;;;;;21.09;34.20;95475.22;6167813;27;109373;-58
2023/03/01 04:02:56;;;;;;;1.00;0.90;;;;;;;20.80;34.78;95432.78;6132950;28;109433;-58
2023/03/01 04:06:00;;;;;;;0.93;0.93;;;;;;;21.02;34.54;95469.47;6138997;28;110086;-58
2023/03/01 04:09:03;;;;;;;0.87;0.87;;;;;;;21.09;34.32;95483.22;6117668;28;109012;-58
2023/03/01 04:12:07;;;;;;;0.90;0.90;;;;;;;21.09;34.68;95483.22;6123092;28;110884;-58
2023/03/01 04:15:13;;;;;;;1.47;0.70;;;;;;;21.10;34.36;95479.47;6171963;28;109892;-58
2023/03/01 04:18:19;;;;;;;0.80;0.80;;;;;;;21.10;34.69;95482.13;6129721;28;110165;-58
2023/03/01 04:21:22;;;;;;;1.00;0.87;;;;;;;21.02;35.01;95461.47;6114221;28;110160;-58
2023/03/01 04:24:25;;;;;;;2.20;2.03;;;;;;;21.12;34.87;95472.78;6149924;28;110098;-58
2023/03/01 04:27:29;;;;;;;2.90;2.70;;;;;;;21.12;34.96;95485.28;6189364;28;108991;-58
2023/03/01 04:30:35;;;;;;;3.33;1.40;;;;;;;21.08;35.16;95484.28;6146415;28;110355;-61
2023/03/01 04:33:41;;;;;;;3.47;3.17;;;;;;;21.09;35.52;95493.84;6115898;28;111634;-60
2023/03/01 04:36:44;;;;;;;3.90;3.60;;;;;;;20.99;35.46;95476.13;6129409;28;109097;-62
2023/03/01 04:39:48;;;;;;;2.90;2.80;;;;;;;20.57;35.57;95485.72;6128994;28;110777;-60
2023/03/01 04:42:51;;;;;;;2.20;2.10;;;;;;;20.19;35.12;95471.53;6127856;28;110754;-61
2023/03/01 04:45:55;;;;;;;2.90;2.70;;;;;;;20.52;35.04;95479.69;6128472;28;110643;-59
2023/03/01 04:48:59;;;;;;;2.70;2.50;;;;;;;20.61;35.54;95492.03;6167902;28;109048;-60
2023/03/01 04:52:03;;;;;;;5.60;2.90;;;;;;;20.81;36.67;95480.34;6123455;28;109100;-60
2023/03/01 04:55:07;;;;;;;2.33;2.23;;;;;;;20.97;36.37;95472.16;6145388;27;109011;-61
2023/03/01 04:58:10;;;;;;;2.10;1.90;;;;;;;21.06;36.67;95478.47;6132142;28;109044;-60
2023/03/01 05:01:16;;;;;;;1.77;1.67;;;;;;;21.14;36.53;95475.94;6177050;28;110546;-60
2023/03/01 05:04:20;;;;;;;4.00;1.60;;;;;;;21.19;36.31;95467.09;6123584;28;111072;-58
2023/03/01 05:07:24;;;;;;;2.10;1.90;;;;;;;21.42;35.94;95487.50;6120106;28;110125;-62
2023/03/01 05:10:30;;;;;;;3.20;2.00;;;;;;;21.55;35.68;95482.53;6150507;28;109237;-60
2023/03/01 05:13:33;;;;;;;2.07;1.50;;;;;;;21.59;35.89;95483.50;6130877;28;109149;-60
2023/03/01 05:16:37;;;;;;;2.73;1.40;;;;;;;21.60;35.97;95488.53;6127726;28;110155;-61
2023/03/01 05:19:42;;;;;;;1.77;1.30;;;;;;;21.53;35.65;95485.47;6130642;28;109973;-59
2023/03/01 05:22:45;;;;;;;2.20;1.63;;;;;;;21.41;34.98;95479.81;6235671;28;109175;-57
2023/03/01 05:25:49;;;;;;;2.00;1.03;;;;;;;21.41;34.92;95483.25;6234264;28;109316;-58
2023/03/01 05:28:52;;;;;;;1.30;0.93;;;;;;;21.40;34.53;95476.34;6224686;27;110042;-58
2023/03/01 05:31:56;;;;;;;1.50;0.90;;;;;;;21.40;34.69;95473.69;6154780;28;109265;-59
2023/03/01 05:35:00;;;;;;;0.97;0.90;;;;;;;21.42;34.31;95474.19;6108783;28;109508;-59
2023/03/01 05:38:04;;;;;;;1.27;1.00;;;;;;;21.43;34.56;95474.97;6108553;28;110561;-62
2023/03/01 05:41:15;;;;;;;3.77;2.77;;;;;;;21.77;36.43;95488.00;6098772;28;110046;-61
2023/03/01 05:44:18;;;;;;;2.60;2.40;;;;;;;21.88;35.89;95486.00;6108706;28;109596;-60
2023/03/01 05:47:21;;;;;;;3.70;2.83;;;;;;;21.94;35.46;95484.81;6109402;28;109689;-60
2023/03/01 05:50:28;;;;;;;3.70;3.20;;;;;;;21.86;35.87;95491.63;6105324;28;110428;-58
2023/03/01 05:53:31;;;;;;;3.03;2.73;;;;;;;21.75;35.92;95498.16;6102175;28;109166;-59
2023/03/01 05:56:34;;;;;;;2.67;2.47;;;;;;;21.67;35.73;95496.16;6108471;28;109219;-59
2023/03/01 05:59:38;;;;;;;3.73;2.73;;;;;;;21.62;35.81;95510.34;6108698;28;109142;-58
2023/03/01 06:02:41;;;;;;;2.50;2.30;;;;;;;21.57;35.37;95501.66;6097960;28;109208;-59
2023/03/01 06:05:45;;;;;;;2.53;2.33;;;;;;;21.52;35.30;95505.19;6107914;28;109133;-58
2023/03/01 06:08:49;;;;;;;3.00;2.70;;;;;;;21.49;35.27;95511.09;6107742;28;109489;-57
2023/03/01 06:11:52;;;;;;;2.43;2.23;;;;;;;21.45;35.49;95520.72;6109219;28;109756;-59
2023/03/01 06:14:55;;;;;;;2.50;2.30;;;;;;;21.43;35.21;95529.00;6097634;28;109213;-58
2023/03/01 06:17:58;;;;;;;2.53;2.33;;;;;;;21.39;35.07;95522.69;6108342;28;109553;-57
2023/03/01 06:21:04;;;;;;;2.60;2.40;;;;;;;21.35;35.09;95526.22;6108228;28;109064;-58
2023/03/01 06:24:08;;;;;;;2.57;2.37;;;;;;;21.33;35.08;95531.81;6108219;28;109237;-58
2023/03/01 06:27:11;;;;;;;2.30;2.10;;;;;;;21.30;35.54;95532.41;6098307;28;109908;-58
2023/03/01 06:30:17;;;;;;;4.10;2.67;;;;;;;21.21;35.24;95518.97;6108720;28;108927;-58
2023/03/01 06:33:23;;;;;;;2.40;2.20;;;;;;;21.19;35.24;95518.47;6107900;28;109259;-58
2023/03/01 06:36:27;;;;;;;3.47;2.13;;;;;;;21.12;35.08;95514.56;6103152;28;109807;-59
2023/03/01 06:39:31;;;;;;;2.20;2.00;;;;;;;21.15;35.41;95524.63;6108626;28;109200;-58
2023/03/01 06:42:34;;;;;;;2.20;2.00;;;;;;;21.10;35.14;95522.84;6111556;28;109390;-58
2023/03/01 06:45:38;;;;;;;2.13;2.00;;;;;;;21.10;34.85;95530.03;6111853;28;110199;-59
2023/03/01 06:48:41;;;;;;;1.80;1.70;;;;;;;21.07;35.11;95525.28;6101721;28;110223;-58
2023/03/01 06:51:46;;;;;;;1.90;1.70;;;;;;;21.09;35.03;95523.91;6111429;28;109214;-58
2023/03/01 06:54:49;;;;;;;2.10;2.00;;;;;;;21.05;34.81;95522.13;6112121;28;109525;-58
2023/03/01 06:57:55;;;;;;;2.20;2.00;;;;;;;21.03;34.95;95525.03;6111551;28;109030;-58
2023/03/01 07:00:58;;;;;;;2.20;1.83;;;;;;;20.72;35.14;95481.28;6101053;28;110231;-59
2023/03/01 07:04:02;;;;;;;2.10;2.00;;;;;;;21.00;34.77;95530.91;6110737;28;109118;-59
2023/03/01 07:07:06;;;;;;;2.13;1.93;;;;;;;21.00;34.70;95527.47;6111973;28;108973;-58
2023/03/01 07:10:11;;;;;;;1.60;1.50;;;;;;;21.00;34.95;95532.78;6105155;28;109078;-58
2023/03/01 07:13:14;;;;;;;1.70;1.60;;;;;;;20.98;34.71;95526.97;6105354;28;109695;-58
2023/03/01 07:16:17;;;;;;;2.10;1.90;;;;;;;20.91;34.91;95512.16;6111124;28;109320;-58
2023/03/01 07:19:21;;;;;;;2.13;1.93;;;;;;;20.99;34.93;95515.25;6112060;28;109006;-58
2023/03/01 07:22:25;;;;;;;2.23;1.70;;;;;;;21.02;34.77;95517.34;6100819;28;109836;-59
2023/03/01 07:25:29;;;;;;;2.30;2.07;;;;;;;21.12;34.62;95523.34;6110923;28;109137;-59
2023/03/01 07:28:35;;;;;;;2.40;2.20;;;;;;;21.19;34.94;95517.66;6111100;28;109063;-58
2023/03/01 07:31:38;;;;;;;3.30;1.63;;;;;;;21.24;34.85;95520.25;6111114;28;109218;-58
2023/03/01 07:34:41;;;;;;;2.50;1.87;;;;;;;21.25;34.89;95513.84;6100329;28;109869;-58
2023/03/01 07:37:46;;;;;;;2.10;2.00;;;;;;;21.25;35.31;95505.88;6111250;28;110195;-58
2023/03/01 07:40:49;;;;;;;1.90;1.53;;;;;;;21.29;35.65;95516.72;6109897;28;109206;-58
2023/03/01 07:43:52;;;;;;;1.70;1.60;;;;;;;21.30;34.95;95518.28;6111028;28;109393;-58
2023/03/01 07:46:57;;;;;;;1.87;1.77;;;;;;;21.29;34.87;95506.84;6100753;28;109018;-58
2023/03/01 07:50:02;;;;;;;2.10;1.60;;;;;;;21.31;35.03;95510.03;6109389;28;109154;-58
2023/03/01 07:53:06;;;;;;;2.00;1.77;;;;;;;21.34;35.11;95501.47;6111387;28;109290;-57
2023/03/01 07:56:11;;;;;;;2.00;1.90;;;;;;;21.26;35.24;95499.47;6101493;28;109074;-58
2023/03/01 07:59:15;;;;;;;2.00;1.80;;;;;;;21.18;35.22;95486.81;6111008;28;109198;-58
2023/03/01 08:02:18;;;;;;;3.27;1.90;;;;;;;21.17;34.80;95493.19;6111418;28;109225;-58
2023/03/01 08:05:22;;;;;;;2.10;1.90;;;;;;;21.11;34.87;95489.03;6110567;28;109353;-58
2023/03/01 08:08:26;;;;;;;1.53;1.43;;;;;;;21.15;34.61;95490.03;6100974;28;110366;-58
2023/03/01 08:11:30;;;;;;;2.03;1.83;;;;;;;21.13;34.76;95494.84;6110339;28;109127;-60
2023/03/01 08:14:33;;;;;;;1.70;1.60;;;;;;;21.09;35.03;95497.31;6111344;28;109229;-59
2023/03/01 08:17:36;;;;;;;1.70;1.60;;;;;;;21.01;34.80;95473.19;6110607;28;110241;-58
2023/03/01 08:20:40;;;;;;;1.70;1.57;;;;;;;21.07;34.93;95486.16;6099298;28;110198;-59
2023/03/01 08:23:45;;;;;;;2.37;2.17;;;;;;;21.08;34.60;95489.59;6111503;28;108994;-58
2023/03/01 08:26:48;;;;;;;1.60;1.50;;;;;;;21.05;34.87;95485.66;6111287;28;109108;-59
2023/03/01 08:29:52;;;;;;;1.70;1.60;;;;;;;20.98;34.86;95479.84;6105390;28;110265;-58
2023/03/01 08:32:55;;;;;;;1.70;1.60;;;;;;;21.06;34.58;95494.44;6106571;28;109657;-58
2023/03/01 08:36:06;;;;;;;1.77;1.67;;;;;;;21.02;34.69;95477.44;6110325;28;109984;-58
2023/03/01 08:39:12;;;;;;;1.70;1.50;;;;;;;21.01;34.61;95481.19;6111146;28;109136;-58
2023/03/01 08:42:16;;;;;;;1.70;1.60;;;;;;;20.99;34.49;95483.31;6099663;28;109127;-59
2023/03/01 08:45:19;;;;;;;1.60;1.50;;;;;;;20.96;34.53;95490.00;6110703;28;109024;-58
2023/03/01 08:48:22;;;;;;;1.80;1.60;;;;;;;20.95;34.63;95487.63;6110295;28;110412;-59
2023/03/01 08:51:27;;;;;;;1.53;1.43;;;;;;;20.93;34.66;95483.38;6110575;28;109334;-58
2023/03/01 08:54:31;;;;;;;1.50;1.40;;;;;;;;;;6099451;28;110374;-58
2023/03/01 08:57:34;;;;;;;1.80;1.70;;;;;;;;;;6110829;28;109616;-64
2023/03/01 09:00:37;;;;;;;2.00;1.43;;;;;;;20.96;34.44;95492.66;6110577;28;109100;-60
2023/03/01 09:03:40;;;;;;;1.60;1.50;;;;;;;20.97;34.75;95488.13;6105719;28;109412;-59
2023/03/01 09:06:43;;;;;;;1.80;1.70;;;;;;;20.97;34.56;95490.78;6105950;28;110113;-59
2023/03/01 09:09:48;;;;;;;1.87;1.77;;;;;;;20.97;34.43;95488.91;6109844;28;109482;-60
2023/03/01 09:12:52;;;;;;;1.60;1.27;;;;;;;20.98;34.52;95487.06;6109685;28;110240;-59
2023/03/01 09:15:55;;;;;;;1.30;1.20;;;;;;;20.90;34.64;95480.50;6100428;28;109282;-59
2023/03/01 09:18:58;;;;;;;1.60;1.50;;;;;;;20.86;34.56;95482.19;6110046;28;110243;-59
2023/03/01 09:22:01;;;;;;;1.40;1.30;;;;;;;20.93;34.44;95494.03;6110100;28;109367;-58
2023/03/01 09:25:07;;;;;;;1.97;1.60;;;;;;;20.93;34.54;95487.91;6110550;28;110777;-59
2023/03/01 09:28:10;;;;;;;1.30;1.20;;;;;;;20.85;34.51;95470.75;6100720;28;109581;-59
2023/03/01 09:31:30;;;;;;;1.50;1.40;;;;;;;20.95;34.18;95479.66;6110146;28;109119;-60
2023/03/01 09:35:00;;;;;;;1.40;1.30;;;;;;;20.89;34.64;95481.59;6110139;28;109153;-60
2023/03/01 09:37:57;;;;;;;1.50;1.40;;;;;;;20.92;34.33;95479.16;6104719;28;109124;-59
2023/03/01 09:41:01;;;;;;;1.50;1.40;;;;;;;20.92;34.30;95471.16;6104706;28;110860;-58
2023/03/01 09:44:14;;;;;;;1.03;0.93;;;;;;;20.89;34.24;95478.94;6109114;28;109429;-59
2023/03/01 09:47:20;;;;;;;1.60;1.47;;;;;;;20.88;34.41;95475.50;6109923;28;109733;-60
2023/03/01 09:50:27;;;;;;;1.50;1.40;;;;;;;20.90;34.24;95467.22;6099181;28;109410;-59
2023/03/01 09:53:35;;;;;;;1.47;1.37;;;;;;;20.88;34.28;95464.84;6109151;28;110089;-59
2023/03/01 09:56:45;;;;;;;1.40;1.30;;;;;;;20.89;34.11;95468.28;6109599;28;108851;-59
2023/03/01 09:59:58;;;;;;;1.50;1.40;;;;;;;20.89;34.28;95463.75;6109666;28;109012;-59
2023/03/01 10:03:10;;;;;;;1.50;1.40;;;;;;;20.80;34.43;95446.06;6097859;28;110369;-58
2023/03/01 10:06:20;;;;;;;1.37;1.27;;;;;;;20.77;34.17;95438.66;6109530;28;108978;-59
2023/03/01 10:09:39;;;;;;;1.40;1.30;;;;;;;20.88;34.37;95456.06;6109438;28;109093;-58
2023/03/01 10:12:46;;;;;;;1.30;1.20;;;;;;;20.88;34.31;95456.06;6100612;28;110540;-59
2023/03/01 10:15:54;;;;;;;0.90;0.90;;;;;;;20.83;34.39;95453.47;6112301;28;109070;-59
2023/03/01 10:19:02;;;;;;;2.00;1.20;;;;;;;20.88;34.31;95458.72;6112564;28;109303;-59
2023/03/01 10:22:14;;;;;;;1.20;1.10;;;;;;;20.90;34.29;95451.25;6113280;28;109173;-60
2023/03/01 10:25:32;;;;;;;1.00;0.90;;;;;;;20.89;34.19;95429.19;6101940;28;110465;-59
2023/03/01 10:28:50;;;;;;;1.03;1.03;;;;;;;20.86;34.03;95424.44;6112562;28;109377;-59
2023/03/01 10:31:54;;;;;;;1.27;1.17;;;;;;;20.87;34.22;95419.91;6113046;28;109542;-58
2023/03/01 10:34:58;;;;;;;1.30;1.20;;;;;;;20.88;34.21;95422.28;6107287;28;110100;-59
2023/03/01 10:38:06;;;;;;;0.90;0.90;;;;;;;20.82;34.19;95418.09;6108578;28;109003;-59
2023/03/01 10:41:09;;;;;;;1.00;0.90;;;;;;;20.88;34.16;95421.50;6112677;28;109325;-59
2023/03/01 10:44:42;;;;;;;0.90;0.90;;;;;;;20.89;34.00;95418.53;6112445;28;110087;-58
2023/03/01 10:47:45;;;;;;;0.83;0.80;;;;;;;20.88;33.98;95411.66;6100540;28;109564;-59
2023/03/01 10:50:50;;;;;;;1.07;0.97;;;;;;;20.88;34.18;95411.66;6111642;28;110320;-59
2023/03/01 10:53:53;;;;;;;1.53;1.23;;;;;;;20.83;33.88;95393.06;6111259;28;109608;-59
2023/03/01 10:56:58;;;;;;;1.00;0.90;;;;;;;20.90;34.01;95404.16;6111288;28;109281;-58
2023/03/01 11:00:17;;;;;;;1.20;1.10;;;;;;;20.89;34.02;95407.91;6102372;28;108747;-59
2023/03/01 11:03:23;;;;;;;1.50;0.80;;;;;;;20.89;34.04;95402.59;6110866;28;109388;-59
2023/03/01 11:06:27;;;;;;;2.30;1.00;;;;;;;20.92;34.04;95404.66;6110899;28;109292;-59
2023/03/01 11:09:37;;;;;;;0.97;0.90;;;;;;;20.91;34.11;95403.09;6100611;28;110932;-59
2023/03/01 11:12:41;;;;;;;1.10;1.00;;;;;;;20.90;33.93;95408.69;6111316;28;108868;-58
2023/03/01 11:15:59;;;;;;;1.20;1.00;;;;;;;20.90;34.02;95409.47;6111567;28;110212;-59
2023/03/01 11:19:18;;;;;;;0.80;0.80;;;;;;;20.91;34.01;95407.63;6110441;28;109023;-58
2023/03/01 11:22:22;;;;;;;0.90;0.90;;;;;;;20.81;33.89;95392.56;6100381;28;109658;-59
2023/03/01 11:25:29;;;;;;;1.07;0.93;;;;;;;20.91;34.07;95403.09;6110938;28;109167;-63
2023/03/01 11:28:37;;;;;;;1.10;1.00;;;;;;;20.89;34.06;95407.91;6111679;28;110030;-59
2023/03/01 11:31:43;;;;;;;1.53;0.80;;;;;;;20.90;33.81;95409.47;6105828;28;109147;-59
2023/03/01 11:35:06;;;;;;;1.10;1.00;;;;;;;20.93;34.12;95400.91;6110942;28;109129;-58
2023/03/01 11:38:19;;;;;;;1.10;1.00;;;;;;;20.94;33.74;95399.06;6112096;28;109455;-59
2023/03/01 11:41:26;;;;;;;1.00;1.00;;;;;;;20.93;34.17;95398.25;6111412;28;109353;-58
2023/03/01 11:44:34;;;;;;;1.20;1.10;;;;;;;20.91;33.95;95395.09;6100274;28;110106;-59
2023/03/01 11:47:56;;;;;;;0.80;0.80;;;;;;;20.91;33.99;95386.34;6110586;28;109191;-60
2023/03/01 11:51:06;;;;;;;1.30;1.20;;;;;;;20.91;33.91;95383.66;6109767;28;109258;-59
2023/03/01 11:54:25;;;;;;;1.10;1.10;;;;;;;20.91;33.83;95378.34;6107372;28;109239;-59
2023/03/01 11:57:44;;;;;;;1.00;0.90;;;;;;;20.90;34.14;95374.91;6130571;28;110217;-59
2023/03/01 12:01:01;;;;;;;0.80;0.80;;;;;;;20.89;34.01;95375.97;6134585;28;109052;-59
2023/03/01 12:04:35;;;;;;;1.10;1.00;;;;;;;20.90;33.93;95377.56;6115012;28;109232;-59
2023/03/01 12:07:47;;;;;;;1.03;0.97;;;;;;;20.93;33.80;95379.63;6099452;28;109616;-59
2023/03/01 12:11:03;;;;;;;1.03;0.90;;;;;;;20.92;33.75;95366.63;6110435;28;109037;-59
2023/03/01 12:14:29;;;;;;;1.17;1.07;;;;;;;20.92;33.81;95369.28;6110493;28;109378;-59
2023/03/01 12:17:45;;;;;;;1.40;1.30;;;;;;;20.91;34.01;95371.16;6099930;28;109423;-59
2023/03/01 12:20:59;;;;;;;1.20;1.10;;;;;;;20.92;34.01;95366.63;6110055;28;109170;-60
2023/03/01 12:24:29;;;;;;;1.10;1.00;;;;;;;20.92;33.90;95354.13;6110067;28;109111;-59
2023/03/01 12:27:47;;;;;;;1.13;1.03;;;;;;;20.93;34.09;95358.34;6110257;28;109533;-59
2023/03/01 12:31:17;;;;;;;1.10;1.00;;;;;;;20.92;33.93;95354.13;6098790;28;108923;-60
2023/03/01 12:34:49;;;;;;;1.10;1.00;;;;;;;20.92;33.78;95348.00;6109980;28;109988;-59
2023/03/01 12:38:02;;;;;;;1.50;0.93;;;;;;;20.91;33.63;95352.53;6110864;28;109529;-58
2023/03/01 12:41:27;;;;;;;1.70;1.43;;;;;;;20.91;33.99;95349.09;6099391;28;109048;-59
2023/03/01 12:44:48;;;;;;;1.53;0.87;;;;;;;20.90;33.73;95358.94;6109697;28;109042;-59
2023/03/01 12:48:09;;;;;;;1.17;1.07;;;;;;;20.92;34.04;95340.03;6110706;28;110283;-61
2023/03/01 12:51:17;;;;;;;0.90;0.90;;;;;;;20.91;34.10;95347.22;6104579;28;109103;-59
2023/03/01 12:54:27;;;;;;;1.20;1.10;;;;;;;20.86;33.90;95334.00;6106541;28;112013;-60
2023/03/01 12:57:38;;;;;;;1.63;1.13;;;;;;;20.90;33.74;95340.31;6110612;28;109508;-59
2023/03/01 13:00:53;;;;;;;0.90;0.90;;;;;;;20.82;33.83;95332.97;6110456;28;108856;-60
2023/03/01 13:04:17;;;;;;;1.30;1.20;;;;;;;20.83;34.04;95334.56;6098321;28;109015;-59
2023/03/01 13:07:30;;;;;;;1.20;1.10;;;;;;;20.90;33.85;95342.19;6109917;28;109521;-59
2023/03/01 13:10:40;;;;;;;1.50;1.40;;;;;;;20.89;33.87;95336.09;6110159;28;108888;-59
2023/03/01 13:13:43;;;;;;;1.20;1.10;;;;;;;20.90;33.63;95344.84;6105602;28;111035;-59
2023/03/01 13:16:48;;;;;;;1.53;1.23;;;;;;;20.89;33.60;95346.72;6104963;28;110544;-59
2023/03/01 13:19:58;;;;;;;1.10;1.00;;;;;;;20.88;33.54;95345.16;6109982;28;109943;-59
2023/03/01 13:23:10;;;;;;;1.40;1.00;;;;;;;20.85;33.93;95343.06;6109515;28;109183;-59
2023/03/01 13:26:16;;;;;;;1.10;1.00;;;;;;;20.80;34.02;95340.47;6099075;28;109088;-59
2023/03/01 13:29:27;;;;;;;1.40;1.30;;;;;;;20.83;33.77;95334.56;6109482;28;110036;-60
2023/03/01 13:32:38;;;;;;;1.13;1.13;;;;;;;20.88;34.05;95342.47;6110094;28;109888;-60
2023/03/01 13:35:48;;;;;;;1.30;1.20;;;;;;;20.88;33.58;95347.81;6109657;28;109539;-60
2023/03/01 13:38:57;;;;;;;1.27;1.17;;;;;;;20.87;33.71;95340.91;6098650;28;109031;-60
2023/03/01 13:42:02;;;;;;;1.57;0.97;;;;;;;20.76;33.70;95322.72;6109564;28;109948;-59
2023/03/01 13:45:17;;;;;;;1.30;1.20;;;;;;;20.87;33.69;95340.13;6108902;28;109320;-59
2023/03/01 13:48:26;;;;;;;1.27;1.10;;;;;;;20.87;33.84;95340.13;6098321;28;109178;-59
2023/03/01 13:51:29;;;;;;;1.30;1.20;;;;;;;20.83;33.59;95329.25;6109053;28;108567;-59
2023/03/01 13:54:34;;;;;;;0.90;0.90;;;;;;;20.88;33.79;95333.72;6109002;28;110089;-59
2023/03/01 13:57:40;;;;;;;1.23;1.13;;;;;;;20.79;33.94;95322.94;6108866;28;109274;-59
2023/03/01 14:00:43;;;;;;;1.20;1.10;;;;;;;20.76;33.81;95318.19;6097218;28;108859;-59
2023/03/01 14:03:46;;;;;;;1.30;1.20;;;;;;;20.77;33.60;95317.13;6107778;28;109367;-59
2023/03/01 14:06:49;;;;;;;1.10;1.00;;;;;;;20.80;33.73;95324.50;6108905;28;109127;-59
2023/03/01 14:09:56;;;;;;;1.53;1.37;;;;;;;20.82;33.61;95332.19;6108737;28;108991;-59
2023/03/01 14:13:20;;;;;;;1.03;0.97;;;;;;;20.82;33.82;95325.00;6097837;28;109458;-59
2023/03/01 14:16:33;;;;;;;1.30;1.20;;;;;;;20.85;33.56;95326.31;6108633;28;109659;-59
2023/03/01 14:19:36;;;;;;;1.07;1.03;;;;;;;20.84;33.74;95330.06;6109893;28;109253;-62
2023/03/01 14:22:42;;;;;;;1.23;1.13;;;;;;;20.72;33.85;95311.88;6098309;28;108861;-60
2023/03/01 14:25:49;;;;;;;1.40;1.30;;;;;;;20.83;33.86;95333.78;6107931;28;109056;-60
2023/03/01 14:28:55;;;;;;;1.63;1.53;;;;;;;20.81;33.92;95341.25;6108882;28;110218;-59
2023/03/01 14:32:10;;;;;;;1.20;1.10;;;;;;;20.81;33.86;95333.28;6107455;28;109170;-59